Airfield :
LOGIN :

Register | Disclaimer

   EN    FR    IT 

 










Legend :    VFR   Marginal VFR   IFR   Intensive IFR   Very Intensive IFR
Visi :
Ceiling :
>= 8 km
>= 3000ft
5 to 8 km
1000 to 3000 ft
1500m to 5 km
500 to 1000 ft
800 to 1500m
200 to 500 ft
< 800m
< 200 ft
Symbols :   Thunderstorms  Fog  Heavy snow  Heavy precipitations  Wind > 20 kt
SIGMETs :     Misc.  Thunderstorms  Icing  Turbulence  Mountain Waves  Volcanic Ashes






- Airport Elevation : 290 ft
- IATA code : ACI


EGJA - Alderney

CURRENT METAR :
  • 121250Z 19030KT 5000 -RA BR BKN008 10/09 Q0984

EXPIRED METARs :
  • 121220Z 18025G37KT 4000 RA BKN005 09/09 Q0986
  • 121150Z 18024KT 4000 RA BKN004 09/09 Q0987
  • 121120Z 19027KT 9999 -RA BKN008 10/09 Q0988
  • 121050Z 19025KT 9999 -RA BKN010 10/09 Q0990
  • 121020Z 20019G29KT 9999 -RA BKN010 10/09 Q0991

TAF TAF EGJA
Valid from the 12 at 12:00 until the 12 at 21:00 UTC


121105Z 1212/1221 19025KT 9999 SCT006 BKN011
TEMPO 1212/1214 7000 RA BKN006
PROB40
TEMPO 1212/1214 3000 DZ BR BKN002
BECMG 1212/1214 27020G30KT
PROB30
TEMPO 1214/1221 7000 SHRA BKN014
BECMG 1219/1221 28030G43KT



MET'MAP, your aeronautical weather chart ! - Copyright ORBIFLY December 2007 - Disclaimer

ORBIFLY MET'MAP TEAM :

Programming & Development : Alexandra Zaïnal
Concept & original design : Baudouin d'Aumeries
Assistance for programming : Marc-Olivier Méhu
Technical & hardware support : Manuel Goepfert

Contact : metmap@orbifly.com




SOURCES & CREDITS :

   NOAA